Time;durP1;ratioP1;P1;durP2;ratioP2;P2;SDS_P1;SDS_P2;PMS_P1;PMS_P2;Temp;Humidity;BMP_temperature;BMP_pressure;BME280_temperature;BME280_humidity;BME280_pressure;Samples;Min_cycle;Max_cycle;Signal;HPM_P1;HPM_P2
2023/12/30 00:01:52;;;;;;;11.65;1.02;;;7.40;76.30;;;;;;20661265;28;20053;-39
2023/12/30 00:11:54;;;;;;;7.63;0.95;;;7.30;58.90;;;;;;20655877;28;20169;-39
2023/12/30 00:21:54;;;;;;;10.57;1.25;;;7.10;58.90;;;;;;20665655;28;20049;-40
2023/12/30 00:31:55;;;;;;;10.25;1.90;;;7.20;41.40;;;;;;20674372;28;20046;-39
2023/12/30 00:41:55;;;;;;;7.43;0.90;;;7.10;35.40;;;;;;20675860;28;20074;-39
2023/12/30 00:51:56;;;;;;;7.88;1.00;;;7.30;16.10;;;;;;20679233;28;20089;-39
2023/12/30 01:01:57;;;;;;;7.30;1.50;;;7.30;15.70;;;;;;20661770;28;20587;-40
2023/12/30 01:11:57;;;;;;;6.35;1.00;;;7.20;9.70;;;;;;20657817;28;20074;-39
2023/12/30 01:21:58;;;;;;;8.40;1.00;;;7.10;9.30;;;;;;20651908;28;20485;-39
2023/12/30 01:31:58;;;;;;;5.30;1.13;;;7.00;10.30;;;;;;20651480;28;20465;-39
2023/12/30 01:41:59;;;;;;;6.38;1.15;;;6.90;13.20;;;;;;20654439;28;20542;-39
2023/12/30 01:52:00;;;;;;;7.50;0.82;;;6.80;12.60;;;;;;20654447;28;20284;-39
2023/12/30 02:02:01;;;;;;;4.50;1.27;;;6.80;13.30;;;;;;20655969;28;20243;-39
2023/12/30 02:12:03;;;;;;;9.32;1.27;;;6.90;8.50;;;;;;20645378;28;20132;-39
2023/12/30 02:22:03;;;;;;;7.68;1.05;;;6.80;12.30;;;;;;20655357;28;20050;-39
2023/12/30 02:32:05;;;;;;;6.40;0.93;;;7.00;5.00;;;;;;20652385;28;20092;-39
2023/12/30 02:42:05;;;;;;;7.38;1.00;;;7.10;2.70;;;;;;20650734;28;20050;-39
2023/12/30 02:52:06;;;;;;;11.07;1.00;;;7.30;1.00;;;;;;20659569;28;20042;-39
2023/12/30 03:02:07;;;;;;;7.28;1.13;;;7.40;1.00;;;;;;20653226;28;20078;-39
2023/12/30 03:12:08;;;;;;;5.13;1.15;;;7.40;1.00;;;;;;20657120;28;20139;-39
2023/12/30 03:22:09;;;;;;;6.40;0.90;;;7.50;1.00;;;;;;20667802;28;20056;-39
2023/12/30 03:32:09;;;;;;;8.23;1.55;;;7.50;1.00;;;;;;20660046;28;20046;-39
2023/12/30 03:42:11;;;;;;;9.88;1.70;;;7.50;1.00;;;;;;20658501;28;20086;-39
2023/12/30 03:52:11;;;;;;;7.82;0.95;;;7.40;1.00;;;;;;20656667;28;20045;-39
2023/12/30 04:02:12;;;;;;;8.68;0.88;;;7.30;1.00;;;;;;20657847;28;20044;-39
2023/12/30 04:12:13;;;;;;;5.43;0.80;;;7.40;1.00;;;;;;20647787;28;20333;-39
2023/12/30 04:22:13;;;;;;;8.70;0.80;;;7.40;1.00;;;;;;20644675;28;20046;-39
2023/12/30 04:32:14;;;;;;;8.73;1.70;;;7.40;1.00;;;;;;20653177;28;20054;-38
2023/12/30 04:42:15;;;;;;;6.88;0.90;;;7.40;1.00;;;;;;20642312;28;20832;-39
2023/12/30 04:52:15;;;;;;;9.60;0.98;;;7.40;1.00;;;;;;20651875;28;20045;-39
2023/12/30 05:02:16;;;;;;;9.75;1.25;;;7.40;1.00;;;;;;20655621;28;20157;-39
2023/12/30 05:12:16;;;;;;;7.55;1.13;;;7.30;1.00;;;;;;20650556;28;20135;-39
2023/12/30 05:22:17;;;;;;;8.45;0.98;;;7.20;1.00;;;;;;20646005;28;20037;-39
2023/12/30 05:32:18;;;;;;;4.70;0.90;;;7.10;1.00;;;;;;20648337;28;20112;-39
2023/12/30 05:42:18;;;;;;;6.30;0.85;;;7.10;1.00;;;;;;20646489;28;20051;-39
2023/12/30 05:52:19;;;;;;;6.45;0.73;;;7.10;1.00;;;;;;20644313;28;20042;-39
2023/12/30 06:02:19;;;;;;;11.68;1.75;;;6.90;1.00;;;;;;20652023;28;20402;-39
2023/12/30 06:12:21;;;;;;;4.80;0.80;;;6.90;1.00;;;;;;20641532;28;20057;-39
2023/12/30 06:22:22;;;;;;;7.85;1.10;;;6.70;1.00;;;;;;20647453;28;20168;-39
2023/12/30 06:32:22;;;;;;;8.30;1.10;;;6.80;1.00;;;;;;20647134;28;20518;-39
2023/12/30 06:42:23;;;;;;;5.78;0.95;;;6.90;1.00;;;;;;20646271;28;20054;-39
2023/12/30 06:52:23;;;;;;;6.88;1.10;;;6.90;1.00;;;;;;20663216;28;20054;-39
2023/12/30 07:02:24;;;;;;;10.68;2.08;;;6.70;1.00;;;;;;20664352;28;20804;-39
2023/12/30 07:12:24;;;;;;;12.23;2.80;;;6.50;1.00;;;;;;20663887;28;20501;-39
2023/12/30 07:22:25;;;;;;;8.32;1.23;;;6.40;5.70;;;;;;20669352;28;20461;-39
2023/12/30 07:32:26;;;;;;;5.18;1.00;;;6.40;12.60;;;;;;20667624;28;20525;-38
2023/12/30 07:42:26;;;;;;;5.35;1.05;;;6.40;23.90;;;;;;20663985;28;20046;-39
2023/12/30 07:52:27;;;;;;;11.20;1.40;;;6.40;36.10;;;;;;20673609;28;20085;-39
2023/12/30 08:02:28;;;;;;;5.50;1.05;;;6.60;56.90;;;;;;20658138;28;20617;-39
2023/12/30 08:12:29;;;;;;;5.10;1.08;;;6.70;59.70;;;;;;20635108;28;20188;-39
2023/12/30 08:22:29;;;;;;;14.30;1.33;;;6.80;59.90;;;;;;20655972;28;20117;-39
2023/12/30 08:32:30;;;;;;;13.93;1.23;;;7.00;49.10;;;;;;20661436;28;20463;-39
2023/12/30 08:42:34;;;;;;;8.82;1.83;;;7.00;50.40;;;;;;20646328;28;20049;-39
2023/12/30 08:52:35;;;;;;;9.30;1.38;;;7.00;45.40;;;;;;20660087;28;20472;-39
2023/12/30 09:02:36;;;;;;;6.78;1.45;;;7.10;52.90;;;;;;20659497;28;20492;-39
2023/12/30 09:12:36;;;;;;;10.10;2.03;;;7.10;55.90;;;;;;20656812;28;20525;-39
2023/12/30 09:22:37;;;;;;;10.35;2.90;;;7.20;72.20;;;;;;20654118;28;20125;-39
2023/12/30 09:32:38;;;;;;;11.90;1.90;;;7.30;79.20;;;;;;20655890;28;20511;-39
2023/12/30 09:42:38;;;;;;;10.32;2.08;;;7.50;84.70;;;;;;20673194;28;20414;-39
2023/12/30 09:52:39;;;;;;;17.00;1.77;;;7.60;73.10;;;;;;20671337;28;20084;-39
2023/12/30 10:02:40;;;;;;;10.65;1.80;;;7.80;68.00;;;;;;20654691;28;20613;-39
2023/12/30 10:12:40;;;;;;;16.87;1.97;;;7.80;71.20;;;;;;20663143;28;20413;-39
2023/12/30 10:22:41;;;;;;;8.27;1.88;;;8.00;63.50;;;;;;20675594;28;20455;-39
2023/12/30 10:32:41;;;;;;;11.57;2.25;;;8.10;64.40;;;;;;20669638;28;20517;-39
2023/12/30 10:42:42;;;;;;;10.23;1.80;;;8.20;66.30;;;;;;20672859;28;20516;-39
2023/12/30 10:52:53;;;;;;;13.77;2.20;;;8.40;53.10;;;;;;20667712;28;20043;-39
2023/12/30 11:02:55;;;;;;;14.27;2.15;;;8.50;59.40;;;;;;20669727;28;20794;-39
2023/12/30 11:12:56;;;;;;;14.45;2.42;;;8.60;51.40;;;;;;20672080;28;20657;-39
2023/12/30 11:23:02;;;;;;;15.00;2.70;;;8.80;50.60;;;;;;20671414;28;20170;-39
2023/12/30 11:33:03;;;;;;;15.65;2.60;;;8.90;55.00;;;;;;20671065;28;20128;-39
2023/12/30 11:43:06;;;;;;;13.80;3.97;;;9.00;58.60;;;;;;20681778;28;20054;-39
2023/12/30 11:53:07;;;;;;;25.15;6.00;;;9.10;63.10;;;;;;20685545;28;20054;-39
2023/12/30 12:03:08;;;;;;;19.33;6.63;;;9.20;60.90;;;;;;20679521;28;20041;-39
2023/12/30 12:13:10;;;;;;;23.55;7.03;;;9.20;69.60;;;;;;20680100;28;20042;-39
2023/12/30 12:23:11;;;;;;;21.45;8.43;;;9.30;77.90;;;;;;20678126;28;20042;-40
2023/12/30 12:33:13;;;;;;;20.00;8.13;;;9.20;86.30;;;;;;20673980;28;20145;-39
2023/12/30 12:43:13;;;;;;;22.33;9.02;;;9.30;96.50;;;;;;20674318;28;20659;-39
2023/12/30 12:53:14;;;;;;;20.20;10.00;;;9.40;90.50;;;;;;20670446;28;20081;-39
2023/12/30 13:03:15;;;;;;;30.33;11.75;;;9.60;80.10;;;;;;20675499;28;20038;-39
2023/12/30 13:13:15;;;;;;;28.53;11.73;;;9.60;68.60;;;;;;20670348;28;20391;-40
2023/12/30 13:23:16;;;;;;;19.35;9.63;;;9.60;58.60;;;;;;20672453;28;20759;-40
2023/12/30 13:33:20;;;;;;;22.80;9.47;;;9.70;54.90;;;;;;20671092;28;20050;-39
2023/12/30 13:43:24;;;;;;;21.45;10.43;;;9.80;42.60;;;;;;20672608;28;20587;-39
2023/12/30 13:53:25;;;;;;;20.33;7.95;;;10.00;33.60;;;;;;20671957;28;20654;-40
2023/12/30 14:03:27;;;;;;;22.02;7.03;;;9.90;22.80;;;;;;20669157;28;20093;-39
2023/12/30 14:13:27;;;;;;;17.90;5.18;;;9.80;19.40;;;;;;20667848;28;20042;-39
2023/12/30 14:23:28;;;;;;;12.25;3.97;;;9.80;18.00;;;;;;20670338;28;21937;-39
2023/12/30 14:33:28;;;;;;;13.40;4.63;;;9.80;15.10;;;;;;20664224;28;20451;-40
2023/12/30 14:43:29;;;;;;;16.38;4.15;;;9.60;12.80;;;;;;20655779;28;20480;-39
2023/12/30 14:53:29;;;;;;;12.50;3.53;;;9.50;18.50;;;;;;20661882;28;20061;-39
2023/12/30 15:03:30;;;;;;;14.02;4.03;;;9.60;16.60;;;;;;20663275;28;20045;-39
2023/12/30 15:13:30;;;;;;;9.82;3.10;;;9.60;17.20;;;;;;20670407;28;20065;-39
2023/12/30 15:23:32;;;;;;;11.55;3.78;;;9.60;18.60;;;;;;20672607;28;20058;-39
2023/12/30 15:33:32;;;;;;;11.10;4.13;;;9.70;16.90;;;;;;20660995;28;20066;-39
2023/12/30 15:43:33;;;;;;;10.13;3.63;;;9.60;19.60;;;;;;20663058;28;20548;-39
2023/12/30 15:53:34;;;;;;;12.65;4.18;;;9.60;23.00;;;;;;20665130;28;20133;-40
2023/12/30 16:03:34;;;;;;;18.13;5.55;;;9.60;26.60;;;;;;20660175;28;20045;-39
2023/12/30 16:13:35;;;;;;;11.07;3.80;;;9.70;24.00;;;;;;20658720;28;20058;-39
2023/12/30 16:23:36;;;;;;;11.40;3.80;;;9.70;21.20;;;;;;20663156;28;20117;-39
2023/12/30 16:33:40;;;;;;;9.97;4.30;;;9.90;14.80;;;;;;20666214;28;20503;-40
2023/12/30 16:43:40;;;;;;;12.02;4.20;;;10.00;11.80;;;;;;20676068;28;20455;-40
2023/12/30 16:53:41;;;;;;;11.77;3.90;;;10.00;9.70;;;;;;20671390;28;20526;-40
2023/12/30 17:03:42;;;;;;;13.75;4.28;;;10.10;7.50;;;;;;20654661;28;20712;-40
2023/12/30 17:13:43;;;;;;;7.28;3.30;;;10.10;6.00;;;;;;20657987;28;20054;-39
2023/12/30 17:23:44;;;;;;;11.10;4.13;;;10.10;5.10;;;;;;20661174;28;20073;-39
2023/12/30 17:33:45;;;;;;;6.85;2.85;;;10.10;4.90;;;;;;20671519;28;20046;-40
2023/12/30 17:43:45;;;;;;;7.07;3.20;;;10.10;3.70;;;;;;20672557;28;20437;-39
2023/12/30 17:53:46;;;;;;;7.63;3.15;;;10.00;5.30;;;;;;20671891;28;20464;-39
2023/12/30 18:03:47;;;;;;;8.63;3.53;;;10.00;3.50;;;;;;20673684;28;20050;-40
2023/12/30 18:13:47;;;;;;;12.10;3.27;;;9.90;5.10;;;;;;20669776;28;20042;-39
2023/12/30 18:23:48;;;;;;;5.72;2.83;;;10.00;4.00;;;;;;20670253;28;20510;-40
2023/12/30 18:33:48;;;;;;;5.90;1.95;;;9.90;3.40;;;;;;20665827;28;20529;-39
2023/12/30 18:43:49;;;;;;;7.75;2.08;;;10.00;2.60;;;;;;20669589;28;20130;-40
2023/12/30 18:53:50;;;;;;;6.13;2.10;;;10.00;1.00;;;;;;20687556;28;20046;-41
2023/12/30 19:03:55;;;;;;;5.07;2.17;;;10.10;1.00;;;;;;20685990;28;20521;-39
2023/12/30 19:13:56;;;;;;;8.57;2.22;;;10.10;1.00;;;;;;20685969;28;20616;-39
2023/12/30 19:23:59;;;;;;;11.63;5.30;;;10.10;1.00;;;;;;20687738;28;20054;-39
2023/12/30 19:34:00;;;;;;;10.27;3.55;;;10.10;1.00;;;;;;20682866;28;20054;-40
2023/12/30 19:44:01;;;;;;;6.15;3.60;;;10.10;1.00;;;;;;20685431;28;20100;-39
2023/12/30 19:54:02;;;;;;;10.93;3.65;;;10.10;1.90;;;;;;20682002;28;20077;-40
2023/12/30 20:04:03;;;;;;;6.53;3.97;;;10.20;1.60;;;;;;20680828;28;20181;-39
2023/12/30 20:14:04;;;;;;;6.22;3.15;;;10.20;2.60;;;;;;20681200;28;20498;-40
2023/12/30 20:24:08;;;;;;;7.68;2.97;;;10.10;6.70;;;;;;20683123;28;20041;-39
2023/12/30 20:34:09;;;;;;;6.65;2.58;;;10.10;9.30;;;;;;20677729;28;20050;-39
2023/12/30 20:44:09;;;;;;;5.03;2.63;;;10.20;14.00;;;;;;20674584;28;20048;-39
2023/12/30 20:54:10;;;;;;;7.72;2.58;;;10.20;17.40;;;;;;20675639;28;20050;-39
2023/12/30 21:04:10;;;;;;;6.50;2.72;;;10.20;20.30;;;;;;20618127;28;20050;-39
2023/12/30 21:14:11;;;;;;;9.18;3.20;;;10.20;22.40;;;;;;20653555;28;20508;-39
2023/12/30 21:24:12;;;;;;;5.10;3.13;;;10.20;25.50;;;;;;20642959;28;20121;-39
2023/12/30 21:34:13;;;;;;;5.72;2.90;;;10.30;24.00;;;;;;20651150;28;20481;-39
2023/12/30 21:44:14;;;;;;;6.53;3.42;;;10.20;26.10;;;;;;20647335;28;20112;-39
2023/12/30 21:54:15;;;;;;;5.93;2.60;;;10.10;33.70;;;;;;20656319;28;20054;-40
2023/12/30 22:04:16;;;;;;;4.43;2.80;;;10.10;35.50;;;;;;20655821;28;20085;-40
2023/12/30 22:14:17;;;;;;;4.47;2.70;;;10.20;40.00;;;;;;20651390;28;20424;-39
2023/12/30 22:24:18;;;;;;;6.20;3.78;;;10.10;44.90;;;;;;20646694;28;20502;-40
2023/12/30 22:34:18;;;;;;;6.13;3.50;;;10.10;51.80;;;;;;20646743;28;20046;-40
2023/12/30 22:44:19;;;;;;;3.95;2.40;;;10.20;57.00;;;;;;20658791;28;20125;-39
2023/12/30 22:54:20;;;;;;;5.22;2.80;;;10.30;54.60;;;;;;20661909;28;20046;-39
2023/12/30 23:04:22;;;;;;;3.50;1.98;;;10.20;51.50;;;;;;20661544;28;20050;-39
2023/12/30 23:14:24;;;;;;;3.58;2.10;;;10.10;57.90;;;;;;20668386;28;20043;-39
2023/12/30 23:24:25;;;;;;;2.95;1.63;;;10.20;46.00;;;;;;20670034;28;20475;-39
2023/12/30 23:34:25;;;;;;;6.95;2.47;;;10.30;42.70;;;;;;20675824;28;20047;-39
2023/12/30 23:44:26;;;;;;;5.60;1.90;;;10.30;34.70;;;;;;20681699;28;20046;-39
2023/12/30 23:54:26;;;;;;;2.83;1.10;;;10.30;30.70;;;;;;20680776;28;20050;-40
